Time;durP1;ratioP1;P1;durP2;ratioP2;P2;SDS_P1;SDS_P2;PMS_P1;PMS_P2;Temp;Humidity;BMP_temperature;BMP_pressure;BME280_temperature;BME280_humidity;BME280_pressure;Samples;Min_cycle;Max_cycle;Signal;HPM_P1;HPM_P2
2022/06/11 00:01:08;;;;;;;;;;;18.60;99.90;;;;;;5095542;28;19913;-81
2022/06/11 00:03:33;;;;;;;;;;;18.70;99.90;;;;;;5095732;28;19908;-81
2022/06/11 00:05:59;;;;;;;;;;;18.70;99.90;;;;;;5077283;28;19908;-81
2022/06/11 00:08:26;;;;;;;;;;;18.80;99.90;;;;;;5095581;28;19908;-81
2022/06/11 00:10:52;;;;;;;;;;;18.80;99.90;;;;;;5095314;28;19908;-82
2022/06/11 00:13:22;;;;;;;;;;;18.70;99.90;;;;;;5077139;28;19915;-81
2022/06/11 00:15:48;;;;;;;;;;;18.70;99.90;;;;;;5077807;28;20368;-82
2022/06/11 00:18:14;;;;;;;;;;;18.80;99.90;;;;;;5095123;28;19934;-82
2022/06/11 00:20:40;;;;;;;;;;;18.90;99.90;;;;;;5095186;28;19908;-82
2022/06/11 00:23:06;;;;;;;;;;;19.00;99.90;;;;;;5095164;28;19958;-81
2022/06/11 00:25:32;;;;;;;;;;;19.00;99.90;;;;;;5095126;28;19999;-82
2022/06/11 00:27:59;;;;;;;;;;;19.10;99.90;;;;;;5095383;28;20373;-82
2022/06/11 00:30:24;;;;;;;;;;;19.20;99.90;;;;;;5095270;28;19919;-82
2022/06/11 00:32:50;;;;;;;;;;;19.20;99.90;;;;;;5095043;28;19909;-82
2022/06/11 00:35:16;;;;;;;;;;;19.10;99.90;;;;;;5094885;28;19908;-81
2022/06/11 00:37:42;;;;;;;;;;;19.20;99.90;;;;;;5094782;28;19916;-82
2022/06/11 00:40:08;;;;;;;;;;;19.20;99.90;;;;;;5093941;28;20018;-81
2022/06/11 00:42:34;;;;;;;;;;;19.10;99.90;;;;;;5094667;28;19934;-82
2022/06/11 00:45:29;;;;;;;;;;;19.10;99.90;;;;;;5094755;28;20396;-82
2022/06/11 00:47:57;;;;;;;;;;;19.10;99.90;;;;;;5076799;28;19999;-82
2022/06/11 00:50:37;;;;;;;;;;;19.00;99.90;;;;;;5095205;28;19908;-82
2022/06/11 00:53:05;;;;;;;;;;;19.10;99.90;;;;;;5094636;28;19962;-82
2022/06/11 00:55:33;;;;;;;;;;;19.20;99.90;;;;;;5076438;28;19915;-81
2022/06/11 00:58:08;;;;;;;;;;;19.20;99.90;;;;;;5094532;28;19931;-82
2022/06/11 01:00:38;;;;;;;;;;;19.20;99.90;;;;;;5094538;28;19927;-81
2022/06/11 01:03:05;;;;;;;;;;;19.30;99.90;;;;;;5094507;28;19958;-82
2022/06/11 01:05:32;;;;;;;;;;;19.20;99.90;;;;;;5094633;28;19908;-82
2022/06/11 01:08:09;;;;;;;;;;;19.20;99.90;;;;;;5094309;28;20367;-82
2022/06/11 01:10:44;;;;;;;;;;;19.20;99.90;;;;;;5094248;28;19912;-82
2022/06/11 01:13:30;;;;;;;;;;;19.30;99.90;;;;;;5094163;28;19951;-82
2022/06/11 01:16:01;;;;;;;;;;;19.30;99.90;;;;;;5075789;28;19912;-82
2022/06/11 01:18:30;;;;;;;;;;;19.20;99.90;;;;;;5094250;28;19908;-81
2022/06/11 01:21:01;;;;;;;;;;;19.30;99.90;;;;;;5094153;28;19909;-81
2022/06/11 01:23:37;;;;;;;;;;;19.20;99.90;;;;;;5094331;28;19915;-81
2022/06/11 01:26:32;;;;;;;;;;;19.20;99.90;;;;;;5094037;28;20003;-81
2022/06/11 01:29:00;;;;;;;;;;;19.20;99.90;;;;;;5094066;28;19961;-82
2022/06/11 01:31:28;;;;;;;;;;;19.20;99.90;;;;;;5075813;28;19931;-82
2022/06/11 01:34:12;;;;;;;;;;;19.00;99.90;;;;;;5093941;28;19912;-81
2022/06/11 01:36:40;;;;;;;;;;;19.00;99.90;;;;;;5093930;28;19920;-81
2022/06/11 01:39:06;;;;;;;;;;;19.00;99.90;;;;;;5075315;28;19920;-82
2022/06/11 01:41:40;;;;;;;;;;;19.10;99.90;;;;;;5093902;28;19969;-81
2022/06/11 01:44:08;;;;;;;;;;;19.00;99.90;;;;;;5094014;28;19969;-81
2022/06/11 01:46:35;;;;;;;;;;;19.00;99.90;;;;;;5093770;28;19935;-81
2022/06/11 01:49:06;;;;;;;;;;;19.00;99.90;;;;;;5075613;28;20031;-81
2022/06/11 01:51:49;;;;;;;;;;;18.90;99.90;;;;;;5093762;28;19908;-82
2022/06/11 01:54:32;;;;;;;;;;;18.80;99.90;;;;;;5093928;28;19908;-81
2022/06/11 01:56:57;;;;;;;;;;;18.80;99.90;;;;;;5094029;28;19912;-81
2022/06/11 01:59:34;;;;;;;;;;;18.70;99.90;;;;;;5093798;28;20011;-81
2022/06/11 02:02:23;;;;;;;;;;;18.70;99.90;;;;;;5093726;28;19908;-81
2022/06/11 02:05:15;;;;;;;;;;;18.70;99.90;;;;;;5082692;28;19908;-81
2022/06/11 02:07:44;;;;;;;;;;;18.60;99.90;;;;;;5089460;28;19908;-81
2022/06/11 02:10:16;;;;;;;;;;;18.60;99.90;;;;;;5093558;28;20407;-81
2022/06/11 02:12:44;;;;;;;;;;;18.50;99.90;;;;;;5093734;28;19912;-81
2022/06/11 02:15:23;;;;;;;;;;;18.40;99.90;;;;;;5093655;28;19909;-81
2022/06/11 02:17:53;;;;;;;;;;;18.30;99.90;;;;;;5093591;28;20011;-81
2022/06/11 02:20:26;;;;;;;;;;;18.20;99.90;;;;;;5093749;28;20385;-81
2022/06/11 02:22:55;;;;;;;;;;;18.00;99.90;;;;;;5093448;28;19909;-81
2022/06/11 02:25:24;;;;;;;;;;;17.90;99.90;;;;;;5075320;28;19916;-81
2022/06/11 02:27:50;;;;;;;;;;;18.00;99.90;;;;;;5093682;28;19916;-81
2022/06/11 02:30:19;;;;;;;;;;;18.00;99.90;;;;;;5093566;28;19908;-81
2022/06/11 02:32:45;;;;;;;;;;;17.90;99.90;;;;;;5093338;28;19908;-81
2022/06/11 02:35:12;;;;;;;;;;;17.80;99.90;;;;;;5093366;28;19915;-81
2022/06/11 02:37:43;;;;;;;;;;;17.80;99.90;;;;;;5093087;28;19919;-81
2022/06/11 02:40:18;;;;;;;;;;;17.80;99.90;;;;;;5075082;28;20335;-81
2022/06/11 02:42:45;;;;;;;;;;;17.80;99.90;;;;;;5075091;28;20277;-81
2022/06/11 02:45:12;;;;;;;;;;;17.60;99.90;;;;;;5075148;28;20400;-81
2022/06/11 02:47:42;;;;;;;;;;;17.60;99.90;;;;;;5093649;28;19931;-81
2022/06/11 02:50:08;;;;;;;;;;;17.50;99.90;;;;;;5093189;28;19946;-81
2022/06/11 02:52:34;;;;;;;;;;;17.50;99.90;;;;;;5093159;28;19935;-81
2022/06/11 02:55:00;;;;;;;;;;;17.40;99.90;;;;;;5093303;28;20377;-81
2022/06/11 02:57:27;;;;;;;;;;;17.40;99.90;;;;;;5093147;28;20004;-81
2022/06/11 02:59:53;;;;;;;;;;;17.40;99.90;;;;;;5074874;28;20455;-81
2022/06/11 03:02:20;;;;;;;;;;;17.30;99.90;;;;;;5075444;28;20380;-81
2022/06/11 03:04:45;;;;;;;;;;;17.20;99.90;;;;;;5096681;28;20364;-81
2022/06/11 03:07:11;;;;;;;;;;;17.20;99.90;;;;;;5096615;28;19908;-81
2022/06/11 03:09:37;;;;;;;;;;;17.20;99.90;;;;;;5096577;28;19946;-81
2022/06/11 03:12:04;;;;;;;;;;;17.10;99.90;;;;;;5096469;28;19908;-81
2022/06/11 03:14:29;;;;;;;;;;;17.00;99.90;;;;;;5096408;28;19908;-81
2022/06/11 03:16:55;;;;;;;;;;;16.90;99.90;;;;;;5096445;28;19956;-81
2022/06/11 03:19:21;;;;;;;;;;;16.90;99.90;;;;;;5096387;28;19919;-81
2022/06/11 03:21:48;;;;;;;;;;;17.00;99.90;;;;;;5096362;28;19908;-81
2022/06/11 03:24:14;;;;;;;;;;;17.00;99.90;;;;;;5096512;28;20000;-81
2022/06/11 03:26:40;;;;;;;;;;;16.90;99.90;;;;;;5096245;28;19968;-81
2022/06/11 03:29:05;;;;;;;;;;;17.00;99.90;;;;;;5078048;28;20388;-81
2022/06/11 03:31:31;;;;;;;;;;;17.00;99.90;;;;;;5096143;28;19915;-81
2022/06/11 03:33:57;;;;;;;;;;;16.90;99.90;;;;;;5096309;28;19908;-81
2022/06/11 03:36:23;;;;;;;;;;;16.80;99.90;;;;;;5077912;28;19909;-81
2022/06/11 03:38:48;;;;;;;;;;;16.70;99.90;;;;;;5095789;28;19927;-81
2022/06/11 03:41:15;;;;;;;;;;;16.60;99.90;;;;;;5095972;28;19958;-81
2022/06/11 03:43:40;;;;;;;;;;;16.60;99.90;;;;;;5096345;28;19957;-81
2022/06/11 03:46:06;;;;;;;;;;;16.70;99.90;;;;;;5095901;28;19991;-81
2022/06/11 03:48:32;;;;;;;;;;;16.60;99.90;;;;;;5077699;28;19976;-81
2022/06/11 03:50:59;;;;;;;;;;;16.60;99.90;;;;;;5095735;28;19912;-81
2022/06/11 03:53:25;;;;;;;;;;;16.70;99.90;;;;;;5095757;28;19908;-81
2022/06/11 03:55:51;;;;;;;;;;;16.80;99.90;;;;;;5077470;28;20065;-81
2022/06/11 03:58:18;;;;;;;;;;;16.90;99.90;;;;;;5095621;28;19955;-81
2022/06/11 04:03:28;;;;;;;;;;;16.80;99.90;;;;;;5095770;28;19915;-81
2022/06/11 04:05:54;;;;;;;;;;;16.80;99.90;;;;;;5095702;28;19912;-81
2022/06/11 04:08:22;;;;;;;;;;;16.90;99.90;;;;;;5095425;28;19965;-81
2022/06/11 04:10:48;;;;;;;;;;;16.90;99.90;;;;;;5077234;28;20380;-81
2022/06/11 04:13:13;;;;;;;;;;;16.90;99.90;;;;;;5095173;28;19915;-81
2022/06/11 04:15:40;;;;;;;;;;;16.90;99.90;;;;;;5095707;28;19908;-81
2022/06/11 04:18:07;;;;;;;;;;;16.90;99.90;;;;;;5095276;28;19908;-81
2022/06/11 04:20:33;;;;;;;;;;;16.90;99.90;;;;;;5095251;28;19919;-81
2022/06/11 04:22:59;;;;;;;;;;;17.00;99.90;;;;;;5095125;28;19908;-81
2022/06/11 04:25:24;;;;;;;;;;;17.00;99.90;;;;;;5095560;28;20000;-81
2022/06/11 04:27:53;;;;;;;;;;;17.00;99.90;;;;;;5095037;28;19940;-81
2022/06/11 04:30:20;;;;;;;;;;;17.00;99.90;;;;;;5095189;28;19908;-81
2022/06/11 04:32:45;;;;;;;;;;;17.10;99.90;;;;;;5094987;28;19947;-81
2022/06/11 04:35:11;;;;;;;;;;;17.10;99.90;;;;;;5094934;28;20017;-81
2022/06/11 04:37:36;;;;;;;;;;;17.20;99.90;;;;;;5094654;28;19912;-81
2022/06/11 04:40:03;;;;;;;;;;;17.20;99.90;;;;;;5094853;28;20287;-81
2022/06/11 04:42:29;;;;;;;;;;;17.30;99.90;;;;;;5076632;28;19912;-81
2022/06/11 04:44:54;;;;;;;;;;;17.30;99.90;;;;;;5094758;28;20382;-81
2022/06/11 04:47:22;;;;;;;;;;;17.50;99.90;;;;;;5094780;28;19998;-81
2022/06/11 04:49:49;;;;;;;;;;;17.60;99.90;;;;;;5094646;28;19915;-81
2022/06/11 04:52:14;;;;;;;;;;;17.70;99.90;;;;;;5094600;28;19962;-81
2022/06/11 04:54:40;;;;;;;;;;;17.50;99.90;;;;;;5076366;28;19939;-81
2022/06/11 04:57:06;;;;;;;;;;;17.40;99.90;;;;;;5076310;28;19915;-81
2022/06/11 04:59:32;;;;;;;;;;;17.20;99.90;;;;;;5094427;28;19912;-81
2022/06/11 05:01:58;;;;;;;;;;;17.20;99.90;;;;;;5076199;28;20365;-81
2022/06/11 05:04:24;;;;;;;;;;;17.20;99.90;;;;;;5094385;28;19912;-81
2022/06/11 05:06:51;;;;;;;;;;;17.30;99.90;;;;;;5094729;28;19916;-81
2022/06/11 05:09:18;;;;;;;;;;;17.50;99.90;;;;;;5094292;28;19908;-81
2022/06/11 05:11:45;;;;;;;;;;;17.90;99.90;;;;;;5076005;28;19991;-81
2022/06/11 05:14:10;;;;;;;;;;;18.20;99.90;;;;;;5094227;28;19914;-81
2022/06/11 05:16:36;;;;;;;;;;;18.40;99.90;;;;;;5094180;28;19908;-81
2022/06/11 05:19:03;;;;;;;;;;;18.50;99.90;;;;;;5094476;28;19919;-81
2022/06/11 05:21:28;;;;;;;;;;;18.60;99.90;;;;;;5075960;28;19908;-81
2022/06/11 05:23:54;;;;;;;;;;;18.60;99.90;;;;;;5094299;28;19912;-81
2022/06/11 05:26:25;;;;;;;;;;;18.60;99.90;;;;;;5075372;28;19958;-81
2022/06/11 05:28:50;;;;;;;;;;;18.60;99.90;;;;;;5094065;28;19995;-81
2022/06/11 05:31:16;;;;;;;;;;;18.60;99.90;;;;;;5094130;28;19951;-81
2022/06/11 05:33:42;;;;;;;;;;;18.70;99.90;;;;;;5093928;28;20364;-81
2022/06/11 05:36:08;;;;;;;;;;;18.90;99.90;;;;;;5093881;28;19908;-81
2022/06/11 05:38:34;;;;;;;;;;;18.90;99.90;;;;;;5093408;28;19942;-81
2022/06/11 05:41:00;;;;;;;;;;;19.00;99.90;;;;;;5094242;28;19957;-81
2022/06/11 05:43:26;;;;;;;;;;;19.00;99.90;;;;;;5093797;28;20395;-81
2022/06/11 05:45:52;;;;;;;;;;;18.90;99.90;;;;;;5093764;28;19916;-81
2022/06/11 05:48:20;;;;;;;;;;;18.80;99.90;;;;;;5093789;28;19908;-81
2022/06/11 05:50:47;;;;;;;;;;;18.80;99.90;;;;;;5093746;28;19908;-81
2022/06/11 05:53:14;;;;;;;;;;;18.90;99.90;;;;;;5093999;28;19908;-81
2022/06/11 05:55:41;;;;;;;;;;;19.00;99.90;;;;;;5093676;28;19909;-81
2022/06/11 05:58:08;;;;;;;;;;;18.90;99.90;;;;;;5093620;28;19909;-81
2022/06/11 06:00:34;;;;;;;;;;;18.90;99.90;;;;;;5093563;28;20512;-81
2022/06/11 06:03:00;;;;;;;;;;;18.80;99.90;;;;;;5093930;28;19915;-81
2022/06/11 06:05:27;;;;;;;;;;;18.90;99.90;;;;;;5093618;28;19908;-81
2022/06/11 06:07:53;;;;;;;;;;;18.90;99.90;;;;;;5093704;28;20396;-81
2022/06/11 06:10:18;;;;;;;;;;;18.90;99.90;;;;;;5093541;28;20296;-81
2022/06/11 06:12:44;;;;;;;;;;;18.90;99.90;;;;;;5093568;28;19913;-81
2022/06/11 06:15:13;;;;;;;;;;;18.90;99.90;;;;;;5093500;28;19915;-81
2022/06/11 06:17:39;;;;;;;;;;;19.10;99.90;;;;;;5075366;28;19991;-81
2022/06/11 06:20:05;;;;;;;;;;;19.10;99.90;;;;;;5093886;28;19938;-81
2022/06/11 06:22:31;;;;;;;;;;;19.00;99.90;;;;;;5093337;28;19908;-81
2022/06/11 06:24:57;;;;;;;;;;;18.80;99.90;;;;;;5093448;28;20037;-81
2022/06/11 06:27:22;;;;;;;;;;;18.50;99.90;;;;;;5093408;28;19912;-81
2022/06/11 06:29:48;;;;;;;;;;;18.40;99.90;;;;;;5093445;28;20368;-81
2022/06/11 06:32:14;;;;;;;;;;;18.40;99.90;;;;;;5075100;28;19912;-81
2022/06/11 06:34:39;;;;;;;;;;;18.30;99.90;;;;;;5093326;28;19915;-81
2022/06/11 06:37:05;;;;;;;;;;;18.40;99.90;;;;;;5093668;28;19930;-81
2022/06/11 06:39:32;;;;;;;;;;;18.50;99.90;;;;;;5078672;28;19942;-81
2022/06/11 06:41:57;;;;;;;;;;;18.50;99.90;;;;;;5097101;28;19914;-81
2022/06/11 06:44:23;;;;;;;;;;;18.50;99.90;;;;;;5097055;28;19908;-81
2022/06/11 06:46:48;;;;;;;;;;;18.20;99.90;;;;;;5097333;28;19995;-81
2022/06/11 06:49:14;;;;;;;;;;;18.10;99.90;;;;;;5097242;28;20428;-81
2022/06/11 06:51:40;;;;;;;;;;;18.40;99.90;;;;;;5096955;28;19908;-81
2022/06/11 06:54:05;;;;;;;;;;;18.50;99.90;;;;;;5097222;28;19908;-81
2022/06/11 06:56:33;;;;;;;;;;;18.80;99.90;;;;;;5096893;28;19995;-81
2022/06/11 06:58:59;;;;;;;;;;;18.80;99.90;;;;;;5096714;28;20018;-81
2022/06/11 07:01:26;;;;;;;;;;;18.90;99.90;;;;;;5096771;28;19915;-81
2022/06/11 07:03:52;;;;;;;;;;;19.10;99.90;;;;;;5096677;28;19914;-81
2022/06/11 07:06:18;;;;;;;;;;;19.20;99.90;;;;;;5097072;28;19991;-81
2022/06/11 07:08:44;;;;;;;;;;;19.40;99.90;;;;;;5096647;28;19990;-81
2022/06/11 07:11:09;;;;;;;;;;;19.70;99.90;;;;;;5096691;28;19951;-81
2022/06/11 07:13:35;;;;;;;;;;;20.10;99.90;;;;;;5096589;28;19908;-82
2022/06/11 07:16:02;;;;;;;;;;;20.20;99.90;;;;;;5096684;28;19915;-82
2022/06/11 07:18:30;;;;;;;;;;;20.80;99.90;;;;;;5096564;28;19931;-81
2022/06/11 07:20:58;;;;;;;;;;;20.90;99.90;;;;;;5096326;28;20395;-81
2022/06/11 07:23:26;;;;;;;;;;;20.80;99.90;;;;;;5096886;28;19987;-81
2022/06/11 07:25:53;;;;;;;;;;;20.70;99.90;;;;;;5078168;28;19983;-81
2022/06/11 07:28:22;;;;;;;;;;;20.90;99.90;;;;;;5096530;28;19912;-82
2022/06/11 07:30:48;;;;;;;;;;;20.50;99.90;;;;;;5096101;28;19934;-81
2022/06/11 07:33:15;;;;;;;;;;;20.70;99.90;;;;;;5095762;28;19908;-82
2022/06/11 07:35:41;;;;;;;;;;;20.70;99.90;;;;;;5091365;28;19950;-82
2022/06/11 07:38:09;;;;;;;;;;;20.70;99.90;;;;;;5095799;28;19966;-82
2022/06/11 07:40:37;;;;;;;;;;;20.70;99.90;;;;;;5096235;28;20015;-82
2022/06/11 07:43:06;;;;;;;;;;;20.90;99.90;;;;;;5095998;28;20368;-83
2022/06/11 07:45:34;;;;;;;;;;;22.80;99.90;;;;;;5114324;28;20393;-83
2022/06/11 07:48:00;;;;;;;;;;;26.20;97.60;;;;;;5097875;28;20352;-83
2022/06/11 07:50:27;;;;;;;;;;;28.80;92.60;;;;;;5116734;28;19915;-84
2022/06/11 07:52:53;;;;;;;;;;;30.30;83.50;;;;;;5116686;28;19961;-83
2022/06/11 07:55:19;;;;;;;;;;;31.60;81.60;;;;;;5098943;28;19911;-83
2022/06/11 07:57:44;;;;;;;;;;;32.40;77.10;;;;;;5096391;28;19911;-83
2022/06/11 08:00:12;;;;;;;;;;;32.80;66.20;;;;;;5096111;28;20364;-83
2022/06/11 08:02:38;;;;;;;;;;;32.70;66.80;;;;;;5078205;28;20268;-80
2022/06/11 08:05:04;;;;;;;;;;;31.90;61.50;;;;;;5110411;28;20002;-81
2022/06/11 08:07:30;;;;;;;;;;;32.50;62.40;;;;;;5116496;28;19999;-81
2022/06/11 08:09:57;;;;;;;;;;;33.30;59.40;;;;;;5116343;28;19993;-81
2022/06/11 08:12:24;;;;;;;;;;;33.20;60.70;;;;;;5115873;28;19908;-81
2022/06/11 08:14:49;;;;;;;;;;;33.60;59.50;;;;;;5085191;28;20388;-81
2022/06/11 08:17:15;;;;;;;;;;;33.60;59.60;;;;;;5095675;28;19912;-81
2022/06/11 08:19:40;;;;;;;;;;;34.20;58.10;;;;;;5095508;28;19919;-81
2022/06/11 08:22:06;;;;;;;;;;;34.90;58.60;;;;;;5095420;28;20319;-81
2022/06/11 08:24:32;;;;;;;;;;;34.60;55.80;;;;;;5104850;28;19961;-81
2022/06/11 08:26:57;;;;;;;;;;;32.00;57.30;;;;;;5116169;28;19915;-80
2022/06/11 08:29:23;;;;;;;;;;;30.00;60.80;;;;;;5115996;28;19908;-79
2022/06/11 08:31:48;;;;;;;;;;;30.30;62.00;;;;;;5115814;28;19915;-80
2022/06/11 08:34:14;;;;;;;;;;;29.20;62.40;;;;;;5108519;28;20380;-79
2022/06/11 08:36:39;;;;;;;;;;;28.00;64.10;;;;;;5095131;28;19908;-79
2022/06/11 08:39:05;;;;;;;;;;;27.30;65.20;;;;;;5095219;28;19920;-79
2022/06/11 08:41:35;;;;;;;;;;;26.60;66.60;;;;;;5095370;28;19915;-78
2022/06/11 08:44:03;;;;;;;;;;;26.00;67.30;;;;;;5099368;28;19908;-79
2022/06/11 08:46:32;;;;;;;;;;;25.30;69.60;;;;;;5115585;28;19908;-79
2022/06/11 08:49:04;;;;;;;;;;;26.70;71.20;;;;;;5115414;28;19994;-79
2022/06/11 08:51:45;;;;;;;;;;;27.20;69.00;;;;;;5115344;28;19908;-82
2022/06/11 08:54:12;;;;;;;;;;;28.20;66.50;;;;;;5114944;28;19956;-81
2022/06/11 08:56:40;;;;;;;;;;;29.20;65.30;;;;;;5115534;28;19968;-80
2022/06/11 08:59:26;;;;;;;;;;;30.20;64.10;;;;;;5115447;28;19946;-80
2022/06/11 09:02:10;;;;;;;;;;;30.90;61.00;;;;;;5062725;28;19998;-80
2022/06/11 09:04:38;;;;;;;;;;;31.10;59.80;;;;;;5106033;28;19908;-80
2022/06/11 09:07:06;;;;;;;;;;;31.20;59.30;;;;;;5094484;28;20002;-79
2022/06/11 09:09:41;;;;;;;;;;;31.40;59.00;;;;;;5094656;28;19915;-81
2022/06/11 09:12:10;;;;;;;;;;;31.90;58.50;;;;;;5094939;28;20341;-80
2022/06/11 09:14:54;;;;;;;;;;;31.60;57.50;;;;;;5084714;28;19914;-79
2022/06/11 09:17:19;;;;;;;;;;;30.30;58.80;;;;;;5114882;28;19912;-80
2022/06/11 09:19:48;;;;;;;;;;;29.10;59.90;;;;;;5115088;28;19919;-84
2022/06/11 09:22:26;;;;;;;;;;;27.60;61.70;;;;;;5115201;28;20338;-83
2022/06/11 09:25:04;;;;;;;;;;;26.80;64.00;;;;;;5104241;28;19916;-80
2022/06/11 09:27:29;;;;;;;;;;;28.10;64.10;;;;;;5094297;28;19912;-80
2022/06/11 09:29:58;;;;;;;;;;;29.70;61.70;;;;;;5076626;28;19913;-80
2022/06/11 09:32:26;;;;;;;;;;;30.80;58.20;;;;;;5094500;28;19914;-79
2022/06/11 09:34:53;;;;;;;;;;;29.90;59.50;;;;;;5104209;28;19908;-80
2022/06/11 09:37:29;;;;;;;;;;;30.50;58.10;;;;;;5114463;28;19908;-79
2022/06/11 09:40:10;;;;;;;;;;;30.40;58.20;;;;;;5095990;28;19920;-82
2022/06/11 09:42:48;;;;;;;;;;;30.70;57.30;;;;;;5114443;28;19914;-80
2022/06/11 09:45:13;;;;;;;;;;;30.90;57.90;;;;;;5114120;28;19952;-82
2022/06/11 09:47:54;;;;;;;;;;;32.60;55.70;;;;;;5114804;28;20379;-80
2022/06/11 09:50:22;;;;;;;;;;;32.70;55.60;;;;;;5096419;28;19918;-81
2022/06/11 09:52:51;;;;;;;;;;;30.80;56.40;;;;;;5114558;28;19908;-81
2022/06/11 09:55:27;;;;;;;;;;;29.20;58.00;;;;;;5082595;28;19908;-80
2022/06/11 09:58:12;;;;;;;;;;;28.40;59.10;;;;;;5094379;28;20234;-80
2022/06/11 10:00:44;;;;;;;;;;;28.50;59.30;;;;;;5061683;28;19981;-79
2022/06/11 10:06:05;;;;;;;;;;;31.20;54.40;;;;;;5072109;28;19932;-80
2022/06/11 10:08:46;;;;;;;;;;;30.90;54.60;;;;;;5073759;28;19909;-80
2022/06/11 10:11:31;;;;;;;;;;;31.80;54.60;;;;;;5074004;28;19912;-80
2022/06/11 10:14:28;;;;;;;;;;;32.50;54.20;;;;;;5056144;28;19909;-80
2022/06/11 10:16:48;;;;;;;;;;;33.60;54.20;;;;;;5077597;28;19939;-80
2022/06/11 10:19:20;;;;;;;;;;;34.00;53.30;;;;;;5077837;28;19946;-80
2022/06/11 10:21:53;;;;;;;;;;;33.70;51.90;;;;;;5077964;28;20349;-81
2022/06/11 10:24:19;;;;;;;;;;;33.00;52.40;;;;;;5075692;28;19908;-80
2022/06/11 10:26:50;;;;;;;;;;;33.30;51.20;;;;;;5077739;28;19919;-80
2022/06/11 10:29:23;;;;;;;;;;;32.70;51.50;;;;;;5077637;28;19950;-79
2022/06/11 10:32:07;;;;;;;;;;;33.40;50.20;;;;;;5077109;28;19931;-79
2022/06/11 10:34:37;;;;;;;;;;;34.00;50.50;;;;;;5077249;28;20395;-80
2022/06/11 10:37:21;;;;;;;;;;;33.60;50.50;;;;;;5077333;28;19915;-80
2022/06/11 10:39:46;;;;;;;;;;;34.20;50.20;;;;;;5077199;28;19927;-80
2022/06/11 10:42:17;;;;;;;;;;;34.10;49.20;;;;;;5076386;28;19908;-80
2022/06/11 10:44:46;;;;;;;;;;;34.10;48.70;;;;;;5075274;28;20004;-80
2022/06/11 10:47:24;;;;;;;;;;;35.70;48.70;;;;;;5076534;28;20296;-80
2022/06/11 10:49:55;;;;;;;;;;;35.90;47.30;;;;;;5076756;28;19908;-80
2022/06/11 10:52:31;;;;;;;;;;;34.80;47.80;;;;;;5075217;28;20326;-80
2022/06/11 10:54:56;;;;;;;;;;;35.30;47.70;;;;;;5076859;28;19914;-80
2022/06/11 10:57:25;;;;;;;;;;;36.00;47.10;;;;;;5075428;28;20304;-80
2022/06/11 11:00:05;;;;;;;;;;;36.30;46.20;;;;;;5073291;28;19963;-80
2022/06/11 11:02:34;;;;;;;;;;;37.20;45.60;;;;;;5074678;28;19909;-80
2022/06/11 11:05:03;;;;;;;;;;;38.30;44.20;;;;;;5074906;28;19916;-80
2022/06/11 11:07:48;;;;;;;;;;;36.30;44.70;;;;;;5074829;28;19909;-80
2022/06/11 11:10:49;;;;;;;;;;;35.00;47.00;;;;;;5073443;28;19909;-79
2022/06/11 11:13:23;;;;;;;;;;;35.10;46.30;;;;;;5033754;28;19999;-80
2022/06/11 11:15:56;;;;;;;;;;;35.00;45.40;;;;;;5069865;28;19909;-80
2022/06/11 11:18:23;;;;;;;;;;;34.90;45.40;;;;;;5076483;28;20007;-80
2022/06/11 11:20:50;;;;;;;;;;;34.90;45.00;;;;;;5076100;28;19912;-79
2022/06/11 11:23:35;;;;;;;;;;;35.30;44.60;;;;;;5075348;28;20007;-80
2022/06/11 11:26:21;;;;;;;;;;;34.70;44.80;;;;;;5076517;28;19931;-80
2022/06/11 11:28:59;;;;;;;;;;;34.10;45.10;;;;;;5076351;28;19961;-80
2022/06/11 11:31:26;;;;;;;;;;;35.20;44.20;;;;;;5076105;28;19912;-79
2022/06/11 11:33:58;;;;;;;;;;;33.20;45.70;;;;;;5076020;28;19977;-79
2022/06/11 11:36:26;;;;;;;;;;;34.00;45.70;;;;;;5076082;28;19909;-80
2022/06/11 11:39:10;;;;;;;;;;;35.40;44.00;;;;;;5075756;28;20003;-80
2022/06/11 11:41:37;;;;;;;;;;;35.50;43.80;;;;;;5075730;28;19913;-80
2022/06/11 11:44:02;;;;;;;;;;;35.40;42.90;;;;;;5075780;28;19909;-83
2022/06/11 11:46:32;;;;;;;;;;;35.30;43.70;;;;;;5075954;28;19916;-82
2022/06/11 11:48:58;;;;;;;;;;;35.30;44.20;;;;;;5075670;28;19909;-83
2022/06/11 11:51:38;;;;;;;;;;;35.90;41.80;;;;;;5074368;28;19943;-83
2022/06/11 11:54:05;;;;;;;;;;;35.80;42.20;;;;;;5075786;28;19908;-82
2022/06/11 11:56:31;;;;;;;;;;;36.30;41.80;;;;;;5075678;28;19908;-82
2022/06/11 11:59:00;;;;;;;;;;;36.40;41.20;;;;;;5075309;28;20387;-81
2022/06/11 12:01:26;;;;;;;;;;;36.90;41.30;;;;;;5075438;28;19944;-79
2022/06/11 12:04:11;;;;;;;;;;;37.30;40.60;;;;;;5075380;28;19912;-80
2022/06/11 12:06:45;;;;;;;;;;;36.80;39.50;;;;;;5074036;28;20360;-80
2022/06/11 12:09:30;;;;;;;;;;;36.90;40.00;;;;;;5075386;28;19915;-80
2022/06/11 12:12:13;;;;;;;;;;;36.10;40.30;;;;;;5075369;28;20418;-80
2022/06/11 12:14:58;;;;;;;;;;;37.10;40.50;;;;;;5075272;28;19916;-81
2022/06/11 12:17:42;;;;;;;;;;;37.60;39.70;;;;;;5075546;28;20093;-79
2022/06/11 12:20:28;;;;;;;;;;;37.70;40.50;;;;;;5075002;28;19961;-80
2022/06/11 12:22:58;;;;;;;;;;;38.20;39.30;;;;;;5063050;28;19912;-80
2022/06/11 12:25:27;;;;;;;;;;;37.50;38.80;;;;;;5073645;28;20374;-81
2022/06/11 12:27:52;;;;;;;;;;;37.00;39.70;;;;;;5075097;28;19995;-79
2022/06/11 12:30:25;;;;;;;;;;;34.90;40.60;;;;;;5074833;28;20003;-80
2022/06/11 12:32:51;;;;;;;;;;;35.60;40.30;;;;;;5074783;28;20391;-82
2022/06/11 12:35:37;;;;;;;;;;;36.60;40.20;;;;;;5074736;28;19916;-82
2022/06/11 12:38:29;;;;;;;;;;;38.00;39.60;;;;;;5062561;28;19916;-82
2022/06/11 12:40:58;;;;;;;;;;;37.40;40.00;;;;;;5072383;28;19920;-83
2022/06/11 12:43:29;;;;;;;;;;;37.40;39.40;;;;;;5074636;28;20369;-82
2022/06/11 12:45:54;;;;;;;;;;;37.80;38.90;;;;;;5074917;28;19916;-82
2022/06/11 12:48:23;;;;;;;;;;;38.50;39.00;;;;;;5074499;28;19935;-82
2022/06/11 12:51:07;;;;;;;;;;;38.00;37.90;;;;;;5074482;28;20338;-81
2022/06/11 12:53:41;;;;;;;;;;;37.60;39.40;;;;;;5074483;28;19962;-82
2022/06/11 12:56:07;;;;;;;;;;;38.80;38.10;;;;;;5074831;28;19909;-82
2022/06/11 12:58:32;;;;;;;;;;;39.30;37.80;;;;;;5074171;28;19915;-79
2022/06/11 13:01:18;;;;;;;;;;;39.00;38.00;;;;;;5072929;28;19913;-80
2022/06/11 13:04:02;;;;;;;;;;;39.40;37.70;;;;;;5073773;28;20007;-80
2022/06/11 13:06:40;;;;;;;;;;;39.00;37.20;;;;;;5074413;28;20365;-79
2022/06/11 13:09:15;;;;;;;;;;;37.70;36.70;;;;;;5074208;28;20002;-81
2022/06/11 13:11:59;;;;;;;;;;;37.70;37.80;;;;;;5074022;28;19908;-82
2022/06/11 13:14:24;;;;;;;;;;;38.50;37.40;;;;;;5074097;28;20374;-83
2022/06/11 13:16:50;;;;;;;;;;;38.70;36.40;;;;;;5074186;28;19909;-81
2022/06/11 13:19:32;;;;;;;;;;;39.10;36.80;;;;;;5073884;28;19916;-81
2022/06/11 13:22:02;;;;;;;;;;;37.50;36.30;;;;;;5074007;28;19909;-81
2022/06/11 13:24:47;;;;;;;;;;;36.20;36.50;;;;;;5074222;28;19952;-82
2022/06/11 13:27:28;;;;;;;;;;;36.70;36.40;;;;;;5074061;28;19978;-81
2022/06/11 13:30:11;;;;;;;;;;;36.80;36.40;;;;;;5074044;28;19993;-80
2022/06/11 13:32:47;;;;;;;;;;;36.90;36.30;;;;;;5073788;28;19912;-79
2022/06/11 13:35:18;;;;;;;;;;;37.80;35.70;;;;;;5073772;28;19916;-80
2022/06/11 13:37:51;;;;;;;;;;;38.30;35.50;;;;;;5073575;28;19912;-79
2022/06/11 13:40:41;;;;;;;;;;;36.80;36.00;;;;;;5073808;28;19959;-80
2022/06/11 13:43:17;;;;;;;;;;;35.80;37.40;;;;;;5073778;28;19995;-81
2022/06/11 13:45:42;;;;;;;;;;;35.50;38.10;;;;;;5073825;28;19908;-80
2022/06/11 13:48:17;;;;;;;;;;;35.90;38.40;;;;;;5073520;28;19915;-80
2022/06/11 13:50:46;;;;;;;;;;;37.40;37.30;;;;;;5073703;28;19909;-81
2022/06/11 13:56:16;;;;;;;;;;;38.50;36.60;;;;;;5073510;28;19915;-80
2022/06/11 13:58:51;;;;;;;;;;;38.90;35.90;;;;;;5073586;28;19908;-79
2022/06/11 14:01:35;;;;;;;;;;;38.90;36.00;;;;;;5073617;28;19919;-80
2022/06/11 14:04:03;;;;;;;;;;;39.20;37.20;;;;;;5073492;28;20365;-79
2022/06/11 14:06:29;;;;;;;;;;;38.90;35.30;;;;;;5072252;28;19951;-80
2022/06/11 14:11:58;;;;;;;;;;;39.30;36.30;;;;;;5073152;28;19916;-80
2022/06/11 14:14:32;;;;;;;;;;;39.60;36.20;;;;;;5072134;28;20292;-80
2022/06/11 14:16:58;;;;;;;;;;;39.10;36.30;;;;;;5073398;28;19909;-81
2022/06/11 14:19:23;;;;;;;;;;;39.80;36.20;;;;;;5073399;28;19912;-81
2022/06/11 14:21:50;;;;;;;;;;;40.70;35.30;;;;;;5072060;28;19915;-80
2022/06/11 14:24:51;;;;;;;;;;;39.40;34.20;;;;;;5073463;28;19939;-79
2022/06/11 14:27:31;;;;;;;;;;;39.20;35.50;;;;;;5014787;28;20309;-80
2022/06/11 14:30:09;;;;;;;;;;;39.00;35.40;;;;;;5068432;28;19909;-80
2022/06/11 14:32:38;;;;;;;;;;;40.70;35.00;;;;;;5073109;28;19915;-80
2022/06/11 14:35:21;;;;;;;;;;;42.20;34.60;;;;;;5073076;28;19915;-82
2022/06/11 14:37:48;;;;;;;;;;;42.80;34.30;;;;;;5073058;28;19916;-80
2022/06/11 14:40:23;;;;;;;;;;;42.50;36.00;;;;;;5073036;28;19916;-82
2022/06/11 14:42:54;;;;;;;;;;;41.80;38.30;;;;;;5073097;28;19909;-81
2022/06/11 14:45:35;;;;;;;;;;;42.70;38.10;;;;;;5073075;28;19963;-81